ZKJBL NZAR-NZAR

Flight info

Callsign ZKJBL
Flight time 0h 26m
Altitude 4000
Route NZAR/NZAR
Aircraft C152/L-SFG/C

Departure

Time 2026-04-26 02:29
Airport Ardmore Airport (NZAR)

Arrival

Time 2026-04-26 02:55
Airport Ardmore Airport (NZAR)
Time Latitude Longitude Altitude Speed Heading
2026-04-26 02:21 -37.03095 174.97653 116 ft 0 kts 319°
2026-04-26 02:24 -37.03082 174.97668 116 ft 8 kts 49°
2026-04-26 02:24 -37.03016 174.97638 117 ft 15 kts 20°
2026-04-26 02:24 -37.02915 174.97764 113 ft 26 kts 47°
2026-04-26 02:25 -37.02811 174.97883 113 ft 6 kts 11°
2026-04-26 02:25 -37.02808 174.97891 113 ft 1 kts 148°
2026-04-26 02:25 -37.02810 174.97891 113 ft 0 kts 203°
2026-04-26 02:25 -37.02815 174.97888 113 ft 0 kts 224°
2026-04-26 02:26 -37.02818 174.97887 115 ft 3 kts 172°
2026-04-26 02:26 -37.02820 174.97963 112 ft 11 kts 88°
2026-04-26 02:26 -37.02820 174.98063 112 ft 12 kts 91°
2026-04-26 02:26 -37.02797 174.98132 112 ft 9 kts 335°
2026-04-26 02:27 -37.02744 174.98100 112 ft 7 kts 332°
2026-04-26 02:27 -37.02703 174.98074 112 ft 7 kts 329°
2026-04-26 02:27 -37.02679 174.98056 113 ft 0 kts
2026-04-26 02:27 -37.02657 174.98040 114 ft 4 kts 319°
2026-04-26 02:28 -37.02650 174.98003 114 ft 7 kts 234°
2026-04-26 02:28 -37.02722 174.97907 114 ft 36 kts 226°
2026-04-26 02:28 -37.03001 174.97563 185 ft 68 kts 228°
2026-04-26 02:28 -37.03375 174.97072 272 ft 82 kts 228°
2026-04-26 02:29 -37.03767 174.96578 501 ft 75 kts 227°
2026-04-26 02:29 -37.04284 174.96217 536 ft 80 kts 212°
2026-04-26 02:29 -37.04680 174.95818 813 ft 71 kts 225°
2026-04-26 02:29 -37.05003 174.95405 1113 ft 64 kts 225°
2026-04-26 02:30 -37.05343 174.94988 1295 ft 73 kts 213°
2026-04-26 02:30 -37.05866 174.94914 1443 ft 84 kts 175°
2026-04-26 02:30 -37.06473 174.95074 1514 ft 95 kts 169°
2026-04-26 02:30 -37.07136 174.95202 1513 ft 99 kts 183°
2026-04-26 02:31 -37.07601 174.95224 1493 ft 101 kts 185°
2026-04-26 02:31 -37.08524 174.95271 1512 ft 97 kts 183°
2026-04-26 02:31 -37.08968 174.95290 1511 ft 94 kts 184°
2026-04-26 02:31 -37.09822 174.95319 1502 ft 94 kts 185°
2026-04-26 02:32 -37.10463 174.95333 1501 ft 91 kts 184°
2026-04-26 02:32 -37.11090 174.95343 1498 ft 89 kts 186°
2026-04-26 02:32 -37.11513 174.95346 1506 ft 91 kts 185°
2026-04-26 02:32 -37.12145 174.95344 1502 ft 91 kts 184°
2026-04-26 02:33 -37.12750 174.95645 1503 ft 97 kts 153°
2026-04-26 02:33 -37.13292 174.96141 1512 ft 97 kts 152°
2026-04-26 02:33 -37.13842 174.96638 1508 ft 97 kts 150°
2026-04-26 02:33 -37.14376 174.97119 1508 ft 93 kts 150°
2026-04-26 02:34 -37.14907 174.97590 1504 ft 95 kts 152°
2026-04-26 02:34 -37.15449 174.98059 1496 ft 92 kts 153°
2026-04-26 02:34 -37.15971 174.98506 1502 ft 92 kts 153°
2026-04-26 02:34 -37.16521 174.98970 1500 ft 96 kts 155°
2026-04-26 02:35 -37.17114 174.99273 1496 ft 88 kts 194°
2026-04-26 02:35 -37.17603 174.99125 1499 ft 85 kts 198°
2026-04-26 02:35 -37.18042 174.99008 1501 ft 87 kts 199°
2026-04-26 02:35 -37.18643 174.98928 1499 ft 92 kts 173°
2026-04-26 02:36 -37.19268 174.99096 1497 ft 91 kts 174°
2026-04-26 02:36 -37.19901 174.99235 1509 ft 95 kts 175°
2026-04-26 02:36 -37.20550 174.99379 1509 ft 94 kts 177°
2026-04-26 02:36 -37.21207 174.99529 1507 ft 97 kts 175°
2026-04-26 02:37 -37.21829 174.99863 1512 ft 99 kts 155°
2026-04-26 02:37 -37.22349 175.00450 1513 ft 104 kts 137°
2026-04-26 02:37 -37.22752 175.01227 1509 ft 111 kts 111°
2026-04-26 02:37 -37.22931 175.02165 1510 ft 110 kts 107°
2026-04-26 02:38 -37.22958 175.03135 1505 ft 112 kts 93°
2026-04-26 02:38 -37.22962 175.04098 1495 ft 108 kts 93°
2026-04-26 02:38 -37.22951 175.05033 1498 ft 107 kts 93°
2026-04-26 02:38 -37.22826 175.05975 1509 ft 111 kts 75°
2026-04-26 02:39 -37.22640 175.06845 1506 ft 110 kts 76°
2026-04-26 02:39 -37.22452 175.07748 1501 ft 106 kts 77°
2026-04-26 02:39 -37.22232 175.08640 1502 ft 109 kts 71°
2026-04-26 02:39 -37.21998 175.09530 1495 ft 105 kts 72°
2026-04-26 02:40 -37.21771 175.10389 1496 ft 104 kts 72°
2026-04-26 02:40 -37.21534 175.11260 1499 ft 106 kts 73°
2026-04-26 02:40 -37.21297 175.12127 1496 ft 105 kts 72°
2026-04-26 02:40 -37.21062 175.12995 1491 ft 107 kts 72°
2026-04-26 02:41 -37.20815 175.13884 1490 ft 107 kts 72°
2026-04-26 02:41 -37.20575 175.14771 1488 ft 108 kts 73°
2026-04-26 02:41 -37.20299 175.15632 1480 ft 105 kts 54°
2026-04-26 02:41 -37.19713 175.16082 1642 ft 92 kts 22°
2026-04-26 02:42 -37.19193 175.16438 1832 ft 80 kts 25°
2026-04-26 02:42 -37.18738 175.16757 2030 ft 71 kts 22°
2026-04-26 02:42 -37.18331 175.17056 2176 ft 69 kts 22°
2026-04-26 02:42 -37.17835 175.17260 2202 ft 85 kts 346°
2026-04-26 02:43 -37.16474 175.17074 2289 ft 105 kts 348°
2026-04-26 02:43 -37.15739 175.16960 2322 ft 108 kts 346°
2026-04-26 02:43 -37.14978 175.16856 2327 ft 110 kts 348°
2026-04-26 02:44 -37.14280 175.16574 2346 ft 106 kts 326°
2026-04-26 02:44 -37.13592 175.16184 2337 ft 109 kts 332°
2026-04-26 02:44 -37.12913 175.15780 2338 ft 108 kts 329°
2026-04-26 02:44 -37.12228 175.15374 2340 ft 109 kts 330°
2026-04-26 02:45 -37.11552 175.14963 2335 ft 106 kts 330°
2026-04-26 02:45 -37.10917 175.14491 2339 ft 107 kts 321°
2026-04-26 02:45 -37.10303 175.13975 2373 ft 106 kts 322°
2026-04-26 02:45 -37.09675 175.13470 2411 ft 106 kts 320°
2026-04-26 02:46 -37.09075 175.12926 2412 ft 108 kts 318°
2026-04-26 02:46 -37.08523 175.12324 2446 ft 106 kts 304°
2026-04-26 02:46 -37.08090 175.11569 2421 ft 106 kts 300°
2026-04-26 02:46 -37.07749 175.10778 2484 ft 100 kts 289°
2026-04-26 02:47 -37.07458 175.10005 2531 ft 102 kts 292°
2026-04-26 02:47 -37.07065 175.09242 2524 ft 105 kts 298°
2026-04-26 02:47 -37.06632 175.08500 2503 ft 104 kts 315°
2026-04-26 02:47 -37.06001 175.08150 2391 ft 96 kts 337°
2026-04-26 02:48 -37.05351 175.08034 2189 ft 97 kts 354°
2026-04-26 02:48 -37.04754 175.07825 2102 ft 86 kts 311°
2026-04-26 02:48 -37.04444 175.07179 1958 ft 91 kts 292°
2026-04-26 02:48 -37.04203 175.06422 1823 ft 95 kts 285°
2026-04-26 02:49 -37.04053 175.05661 1800 ft 89 kts 276°
2026-04-26 02:49 -37.04012 175.04884 1728 ft 88 kts 264°
2026-04-26 02:49 -37.04030 175.04101 1712 ft 91 kts 264°
2026-04-26 02:49 -37.04042 175.03283 1700 ft 96 kts 262°
2026-04-26 02:50 -37.04045 175.02441 1741 ft 96 kts 263°
2026-04-26 02:50 -37.04049 175.01593 1690 ft 98 kts 263°
2026-04-26 02:50 -37.04051 175.00768 1668 ft 95 kts 268°
2026-04-26 02:50 -37.03881 174.99957 1685 ft 98 kts 292°
2026-04-26 02:51 -37.03405 174.99308 1669 ft 103 kts 313°
2026-04-26 02:51 -37.02846 174.98740 1667 ft 103 kts 315°
2026-04-26 02:51 -37.02288 174.98148 1612 ft 108 kts 310°
2026-04-26 02:51 -37.01781 174.97507 1444 ft 99 kts 295°
2026-04-26 02:52 -37.01860 174.96820 1250 ft 82 kts 221°
2026-04-26 02:52 -37.02246 174.96343 1099 ft 81 kts 225°
2026-04-26 02:52 -37.02731 174.95967 1124 ft 86 kts 184°
2026-04-26 02:52 -37.03251 174.96407 1117 ft 98 kts 137°
2026-04-26 02:53 -37.03674 174.97064 1123 ft 98 kts 136°
2026-04-26 02:53 -37.04034 174.97768 1104 ft 102 kts 111°
2026-04-26 02:53 -37.03795 174.98564 1091 ft 105 kts 45°
2026-04-26 02:53 -37.03259 174.99206 1090 ft 106 kts 46°
2026-04-26 02:54 -37.02755 174.99737 1030 ft 79 kts 23°
2026-04-26 02:54 -37.02241 174.99719 764 ft 68 kts 324°
2026-04-26 02:54 -37.01967 174.99291 597 ft 61 kts 278°
2026-04-26 02:54 -37.01998 174.98824 459 ft 50 kts 232°
2026-04-26 02:55 -37.02261 174.98518 304 ft 55 kts 226°
2026-04-26 02:55 -37.02531 174.98159 218 ft 59 kts 230°
2026-04-26 02:55 -37.02814 174.97797 121 ft 48 kts 229°
2026-04-26 02:55 -37.03037 174.97522 123 ft 62 kts 229°
2026-04-26 02:56 -37.03371 174.97076 284 ft 71 kts 228°
2026-04-26 02:56 -37.03681 174.96641 552 ft 61 kts 233°
2026-04-26 02:56 -37.04082 174.96418 735 ft 74 kts 175°
2026-04-26 02:56 -37.04447 174.96844 1000 ft 78 kts 137°
2026-04-26 02:57 -37.04615 174.97498 1157 ft 92 kts 76°
2026-04-26 02:57 -37.04190 174.98182 1132 ft 105 kts 51°
2026-04-26 02:57 -37.03721 174.98853 1163 ft 102 kts 49°
2026-04-26 02:57 -37.03254 174.99518 1115 ft 95 kts 50°
2026-04-26 02:58 -37.02808 174.99940 987 ft 75 kts
2026-04-26 02:58 -37.02343 174.99793 760 ft 68 kts 321°
2026-04-26 02:58 -37.01945 174.99507 620 ft 67 kts 311°
2026-04-26 02:58 -37.01847 174.99069 573 ft 51 kts 248°
2026-04-26 02:59 -37.02095 174.98719 428 ft 58 kts 228°
2026-04-26 02:59 -37.02356 174.98391 289 ft 50 kts 227°
2026-04-26 02:59 -37.02613 174.98048 171 ft 58 kts 229°
2026-04-26 02:59 -37.02862 174.97738 116 ft 35 kts 222°
2026-04-26 03:00 -37.03107 174.97436 170 ft 63 kts 226°
2026-04-26 03:00 -37.03446 174.96984 304 ft 75 kts 231°
2026-04-26 03:00 -37.03804 174.96530 470 ft 70 kts 226°
2026-04-26 03:00 -37.04210 174.96289 736 ft 69 kts 158°
2026-04-26 03:01 -37.04516 174.96776 999 ft 77 kts 137°
2026-04-26 03:01 -37.04804 174.97396 1132 ft 94 kts 100°
2026-04-26 03:01 -37.04471 174.98126 1171 ft 106 kts 48°
2026-04-26 03:01 -37.03943 174.98792 1153 ft 106 kts 47°
2026-04-26 03:02 -37.03433 174.99436 1144 ft 105 kts 45°
2026-04-26 03:02 -37.02908 175.00000 1131 ft 86 kts 28°
2026-04-26 03:02 -37.02369 175.00076 960 ft 70 kts 333°
2026-04-26 03:02 -37.01948 174.99761 826 ft 71 kts 319°
2026-04-26 03:03 -37.01637 174.99383 714 ft 56 kts 264°
2026-04-26 03:03 -37.01867 174.99029 556 ft 57 kts 222°
2026-04-26 03:03 -37.01946 174.98928 502 ft 59 kts 230°
2026-04-26 03:03 -37.02211 174.98526 400 ft 59 kts 225°
2026-04-26 03:04 -37.02522 174.98177 256 ft 64 kts 228°
2026-04-26 03:04 -37.02770 174.97852 117 ft 33 kts 230°
2026-04-26 03:04 -37.02979 174.97589 122 ft 64 kts 229°
2026-04-26 03:04 -37.03237 174.97271 317 ft 68 kts 231°
2026-04-26 03:05 -37.03576 174.96825 472 ft 72 kts 231°
2026-04-26 03:05 -37.03956 174.96487 716 ft 72 kts 189°
2026-04-26 03:05 -37.04399 174.96870 885 ft 77 kts 142°
2026-04-26 03:05 -37.04760 174.97383 1121 ft 84 kts 127°
2026-04-26 03:06 -37.04707 174.98143 1227 ft 98 kts 48°
2026-04-26 03:06 -37.04193 174.98818 1124 ft 117 kts 47°
2026-04-26 03:06 -37.03641 174.99561 1098 ft 115 kts 48°
2026-04-26 03:06 -37.03143 175.00202 1098 ft 82 kts 41°
2026-04-26 03:07 -37.02632 175.00454 910 ft 76 kts 350°
2026-04-26 03:07 -37.02197 175.00206 801 ft 69 kts 313°
2026-04-26 03:07 -37.01778 174.99866 700 ft 68 kts 311°
2026-04-26 03:07 -37.01631 174.99441 598 ft 51 kts 251°
2026-04-26 03:08 -37.01804 174.99078 542 ft 51 kts 231°
2026-04-26 03:08 -37.02025 174.98737 479 ft 50 kts 226°
2026-04-26 03:08 -37.02286 174.98424 354 ft 55 kts 219°
2026-04-26 03:08 -37.02564 174.98114 215 ft 53 kts 227°
2026-04-26 03:09 -37.02799 174.97814 112 ft 35 kts 229°
2026-04-26 03:09 -37.03035 174.97509 170 ft 62 kts 227°
2026-04-26 03:09 -37.03352 174.97103 334 ft 71 kts 227°
2026-04-26 03:09 -37.03681 174.96649 569 ft 71 kts 230°
2026-04-26 03:10 -37.04035 174.96329 859 ft 62 kts 182°
2026-04-26 03:10 -37.04433 174.96677 1031 ft 81 kts 144°
2026-04-26 03:10 -37.04638 174.97402 1129 ft 103 kts 83°
2026-04-26 03:10 -37.04214 174.98167 1108 ft 108 kts 46°
2026-04-26 03:11 -37.03693 174.98824 1116 ft 108 kts 46°
2026-04-26 03:11 -37.03172 174.99490 1123 ft 108 kts 47°
2026-04-26 03:11 -37.02687 175.00115 1112 ft 77 kts 36°
2026-04-26 03:11 -37.02226 175.00127 963 ft 72 kts 321°
2026-04-26 03:12 -37.01797 174.99767 844 ft 71 kts 308°
2026-04-26 03:12 -37.01647 174.99295 788 ft 57 kts 250°
2026-04-26 03:12 -37.01914 174.98921 626 ft 56 kts 218°
2026-04-26 03:12 -37.02192 174.98593 421 ft 58 kts 227°
2026-04-26 03:13 -37.02477 174.98223 266 ft 57 kts 229°
2026-04-26 03:13 -37.02740 174.97889 127 ft 49 kts 230°
2026-04-26 03:13 -37.02922 174.97653 114 ft 25 kts 228°
2026-04-26 03:13 -37.03163 174.97349 151 ft 66 kts 226°
2026-04-26 03:14 -37.03496 174.96904 337 ft 70 kts 229°
2026-04-26 03:14 -37.03849 174.96465 548 ft 72 kts 227°
2026-04-26 03:14 -37.04287 174.96307 798 ft 73 kts 167°
2026-04-26 03:14 -37.04694 174.96746 1062 ft 80 kts 129°
2026-04-26 03:15 -37.04656 174.97510 1067 ft 103 kts 56°
2026-04-26 03:15 -37.04329 174.97959 1044 ft 108 kts 46°
2026-04-26 03:15 -37.03632 174.98848 1043 ft 106 kts 46°
2026-04-26 03:15 -37.03305 174.99293 1053 ft 102 kts 50°
2026-04-26 03:16 -37.02826 174.99949 1075 ft 105 kts 49°
2026-04-26 03:16 -37.02118 175.00829 1104 ft 112 kts 39°
2026-04-26 03:16 -37.01728 175.01232 1178 ft 105 kts 38°
2026-04-26 03:16 -37.01195 175.01592 1106 ft 83 kts 359°
2026-04-26 03:17 -37.00705 175.01380 989 ft 71 kts 312°
2026-04-26 03:17 -37.00468 175.00888 874 ft 62 kts 269°
2026-04-26 03:17 -37.00680 175.00469 757 ft 59 kts 223°
2026-04-26 03:17 -37.00999 175.00103 679 ft 64 kts 229°
2026-04-26 03:18 -37.01272 174.99757 630 ft 53 kts 229°
2026-04-26 03:18 -37.01530 174.99430 532 ft 52 kts 230°
2026-04-26 03:18 -37.01796 174.99106 504 ft 56 kts 229°
2026-04-26 03:18 -37.02080 174.98707 449 ft 64 kts 224°
2026-04-26 03:19 -37.02358 174.98375 307 ft 53 kts 227°
2026-04-26 03:19 -37.02631 174.98026 176 ft 58 kts 227°
2026-04-26 03:19 -37.02864 174.97735 112 ft 31 kts 229°
2026-04-26 03:19 -37.03098 174.97443 162 ft 63 kts 227°
2026-04-26 03:20 -37.03412 174.97025 366 ft 65 kts 228°
2026-04-26 03:20 -37.03731 174.96592 583 ft 70 kts 227°
2026-04-26 03:20 -37.04157 174.96359 785 ft 74 kts 172°
2026-04-26 03:20 -37.04550 174.96805 1009 ft 81 kts 139°
2026-04-26 03:21 -37.04774 174.97501 1136 ft 102 kts 84°
2026-04-26 03:21 -37.04348 174.98243 1157 ft 109 kts 49°
2026-04-26 03:21 -37.03827 174.98911 1143 ft 107 kts 45°
2026-04-26 03:21 -37.03280 174.99549 1077 ft 107 kts 43°
2026-04-26 03:22 -37.02748 175.00026 985 ft 79 kts
2026-04-26 03:22 -37.02241 174.99908 725 ft 77 kts 323°
2026-04-26 03:22 -37.01777 174.99580 616 ft 71 kts 313°
2026-04-26 03:22 -37.01703 174.99150 479 ft 58 kts 228°
2026-04-26 03:23 -37.02005 174.98808 425 ft 59 kts 229°
2026-04-26 03:23 -37.02287 174.98470 291 ft 59 kts 226°
2026-04-26 03:23 -37.02573 174.98098 192 ft 58 kts 228°
2026-04-26 03:23 -37.02823 174.97782 112 ft 39 kts 229°
2026-04-26 03:24 -37.03075 174.97463 175 ft 65 kts 227°
2026-04-26 03:24 -37.03410 174.97028 351 ft 70 kts 229°
2026-04-26 03:24 -37.03751 174.96561 544 ft 74 kts 228°
2026-04-26 03:24 -37.04204 174.96404 735 ft 81 kts 158°
2026-04-26 03:25 -37.04612 174.96910 944 ft 85 kts 138°
2026-04-26 03:25 -37.04635 174.97673 1051 ft 108 kts 58°
2026-04-26 03:25 -37.04163 174.98417 1079 ft 107 kts 50°
2026-04-26 03:25 -37.03648 174.99095 1081 ft 111 kts 45°
2026-04-26 03:26 -37.03114 174.99720 1100 ft 87 kts 43°
2026-04-26 03:26 -37.02652 174.99993 950 ft 72 kts 341°
2026-04-26 03:26 -37.02233 174.99645 817 ft 77 kts 312°
2026-04-26 03:26 -37.01894 174.99168 748 ft 66 kts 273°
2026-04-26 03:27 -37.02055 174.98710 544 ft 59 kts 220°
2026-04-26 03:27 -37.02356 174.98381 348 ft 58 kts 229°
2026-04-26 03:27 -37.02638 174.98024 175 ft 57 kts 225°
2026-04-26 03:27 -37.02840 174.97765 112 ft 27 kts 227°
2026-04-26 03:28 -37.03075 174.97465 157 ft 65 kts 227°
2026-04-26 03:28 -37.03405 174.97034 347 ft 69 kts 227°
2026-04-26 03:28 -37.03761 174.96578 514 ft 77 kts 225°
2026-04-26 03:28 -37.04184 174.96267 806 ft 67 kts 183°
2026-04-26 03:29 -37.04577 174.96669 1008 ft 85 kts 139°
2026-04-26 03:29 -37.04629 174.97447 1065 ft 104 kts 68°
2026-04-26 03:29 -37.04139 174.98138 1039 ft 105 kts 44°
2026-04-26 03:29 -37.03605 174.98774 980 ft 111 kts 47°
2026-04-26 03:30 -37.03089 174.99437 952 ft 92 kts 38°
2026-04-26 03:30 -37.02573 174.99648 730 ft 70 kts 358°
2026-04-26 03:30 -37.02088 174.99613 544 ft 72 kts 326°
2026-04-26 03:30 -37.01828 174.99180 511 ft 57 kts 266°
2026-04-26 03:31 -37.02020 174.98776 461 ft 57 kts 220°
2026-04-26 03:31 -37.02285 174.98460 354 ft 53 kts 224°
2026-04-26 03:31 -37.02551 174.98131 206 ft 52 kts 229°
2026-04-26 03:31 -37.02788 174.97829 116 ft 38 kts 229°
2026-04-26 03:32 -37.03003 174.97554 138 ft 60 kts 228°
2026-04-26 03:32 -37.03335 174.97123 286 ft 72 kts 224°
2026-04-26 03:32 -37.03665 174.96769 315 ft 53 kts 221°
2026-04-26 03:32 -37.04037 174.96704 214 ft 66 kts 175°
2026-04-26 03:33 -37.04487 174.96843 432 ft 69 kts 180°
2026-04-26 03:33 -37.04962 174.96841 663 ft 71 kts 195°
2026-04-26 03:33 -37.05336 174.96448 907 ft 72 kts 239°
2026-04-26 03:33 -37.05577 174.95910 1125 ft 72 kts 238°
2026-04-26 03:34 -37.05827 174.95350 1324 ft 76 kts 233°
2026-04-26 03:34 -37.06283 174.95063 1473 ft 85 kts 182°
2026-04-26 03:34 -37.06899 174.95266 1523 ft 97 kts 164°
2026-04-26 03:34 -37.07554 174.95548 1529 ft 99 kts 174°
2026-04-26 03:35 -37.08217 174.95491 1259 ft 99 kts 201°
2026-04-26 03:35 -37.08835 174.95224 1309 ft 94 kts 206°
2026-04-26 03:35 -37.09449 174.94963 1410 ft 91 kts 200°
2026-04-26 03:35 -37.10064 174.94764 1414 ft 91 kts 197°
2026-04-26 03:36 -37.10684 174.94680 1461 ft 90 kts 182°
2026-04-26 03:36 -37.11297 174.94847 1455 ft 93 kts 168°
2026-04-26 03:36 -37.11892 174.95165 1483 ft 95 kts 159°
2026-04-26 03:36 -37.12462 174.95566 1499 ft 95 kts 158°
2026-04-26 03:37 -37.13037 174.95984 1478 ft 98 kts 157°
2026-04-26 03:37 -37.13616 174.96439 1522 ft 97 kts 155°
2026-04-26 03:37 -37.14179 174.96911 1483 ft 99 kts 154°
2026-04-26 03:37 -37.14780 174.97331 1460 ft 96 kts 159°
2026-04-26 03:38 -37.15348 174.97691 1595 ft 91 kts 160°
2026-04-26 03:38 -37.15880 174.98054 1800 ft 87 kts 159°
2026-04-26 03:38 -37.16418 174.98424 1908 ft 89 kts 158°
2026-04-26 03:38 -37.16976 174.98736 2106 ft 85 kts 166°
2026-04-26 03:39 -37.17516 174.98987 2297 ft 82 kts 169°
2026-04-26 03:39 -37.18081 174.99210 2405 ft 88 kts 171°
2026-04-26 03:39 -37.18684 174.99428 2494 ft 91 kts 171°
2026-04-26 03:39 -37.19305 174.99628 2537 ft 93 kts 173°
2026-04-26 03:40 -37.19940 174.99832 2483 ft 95 kts 170°
2026-04-26 03:40 -37.20573 175.00071 2544 ft 93 kts 168°
2026-04-26 03:40 -37.21191 175.00349 2544 ft 97 kts 166°
2026-04-26 03:40 -37.21844 175.00653 2454 ft 100 kts 164°
2026-04-26 03:41 -37.22452 175.01025 2489 ft 96 kts 149°
2026-04-26 03:41 -37.22852 175.01715 2489 ft 104 kts 114°
2026-04-26 03:41 -37.22825 175.02623 2492 ft 110 kts 75°
2026-04-26 03:41 -37.22580 175.03547 2475 ft 111 kts 76°
2026-04-26 03:42 -37.22345 175.04464 2509 ft 109 kts 74°
2026-04-26 03:42 -37.22109 175.05381 2501 ft 113 kts 74°
2026-04-26 03:42 -37.21874 175.06335 2507 ft 113 kts 73°
2026-04-26 03:42 -37.21643 175.07273 2489 ft 112 kts 74°
2026-04-26 03:43 -37.21402 175.08211 2475 ft 115 kts 74°
2026-04-26 03:43 -37.21158 175.09164 2465 ft 112 kts 73°
2026-04-26 03:43 -37.20918 175.10101 2458 ft 112 kts 75°
2026-04-26 03:43 -37.20676 175.11039 2446 ft 114 kts 73°
2026-04-26 03:44 -37.20413 175.11978 2442 ft 112 kts 72°
2026-04-26 03:44 -37.20146 175.12897 2465 ft 111 kts 72°
2026-04-26 03:44 -37.19884 175.13790 2486 ft 110 kts 71°
2026-04-26 03:44 -37.19624 175.14702 2491 ft 113 kts 72°
2026-04-26 03:45 -37.19373 175.15641 2489 ft 114 kts 75°
2026-04-26 03:45 -37.18981 175.16454 2584 ft 110 kts 38°
2026-04-26 03:45 -37.18290 175.16787 2608 ft 103 kts 355°
2026-04-26 03:45 -37.17584 175.16721 2628 ft 104 kts 347°
2026-04-26 03:46 -37.16894 175.16554 2611 ft 104 kts 339°
2026-04-26 03:46 -37.16190 175.16349 2666 ft 98 kts 340°
2026-04-26 03:46 -37.15523 175.16150 2661 ft 103 kts 338°
2026-04-26 03:47 -37.14129 175.15802 2696 ft 103 kts 343°
2026-04-26 03:47 -37.13395 175.15684 2589 ft 111 kts 351°
2026-04-26 03:47 -37.12634 175.15655 2590 ft 106 kts 350°
2026-04-26 03:47 -37.11960 175.15346 2559 ft 101 kts 323°
2026-04-26 03:48 -37.11371 175.14861 2517 ft 104 kts 322°
2026-04-26 03:48 -37.10753 175.14400 2494 ft 103 kts 325°
2026-04-26 03:48 -37.10134 175.13944 2499 ft 104 kts 323°
2026-04-26 03:48 -37.09504 175.13481 2493 ft 104 kts 325°
2026-04-26 03:49 -37.08876 175.13038 2492 ft 103 kts 323°
2026-04-26 03:49 -37.08256 175.12605 2486 ft 99 kts 328°
2026-04-26 03:49 -37.07642 175.12200 2491 ft 101 kts 326°
2026-04-26 03:49 -37.07039 175.11801 2486 ft 97 kts 326°
2026-04-26 03:50 -37.06469 175.11356 2497 ft 94 kts 310°
2026-04-26 03:50 -37.06055 175.10706 2414 ft 103 kts 300°
2026-04-26 03:50 -37.05626 175.10009 2255 ft 100 kts 305°
2026-04-26 03:50 -37.05144 175.09301 1922 ft 110 kts 306°
2026-04-26 03:51 -37.04633 175.08569 1684 ft 110 kts 306°
2026-04-26 03:51 -37.04147 175.07875 1656 ft 101 kts 306°
2026-04-26 03:51 -37.03698 175.07258 1645 ft 91 kts 307°
2026-04-26 03:51 -37.03410 175.06594 1599 ft 85 kts 282°
2026-04-26 03:52 -37.03243 175.05909 1601 ft 81 kts 282°
2026-04-26 03:52 -37.03074 175.05244 1589 ft 79 kts 282°
2026-04-26 03:52 -37.02906 175.04601 1582 ft 76 kts 278°
2026-04-26 03:52 -37.02740 175.03996 1582 ft 73 kts 282°
2026-04-26 03:53 -37.02574 175.03398 1575 ft 71 kts 275°
2026-04-26 03:53 -37.02583 175.02793 1570 ft 70 kts 263°
2026-04-26 03:53 -37.02599 175.02184 1576 ft 72 kts 263°
2026-04-26 03:53 -37.02615 175.01537 1580 ft 77 kts 263°
2026-04-26 03:54 -37.02618 175.00853 1589 ft 81 kts 263°
2026-04-26 03:54 -37.02621 175.00140 1587 ft 82 kts 263°
2026-04-26 03:54 -37.02636 174.99447 1590 ft 78 kts 262°
2026-04-26 03:54 -37.02651 174.98778 1588 ft 76 kts 263°
2026-04-26 03:55 -37.02615 174.98115 1583 ft 81 kts 287°
2026-04-26 03:55 -37.02124 174.97691 1486 ft 89 kts 329°
2026-04-26 03:55 -37.01605 174.97319 1258 ft 77 kts 282°
2026-04-26 03:55 -37.01746 174.96817 1146 ft 61 kts 233°
2026-04-26 03:56 -37.01976 174.96343 1011 ft 72 kts 236°
2026-04-26 03:56 -37.02339 174.96021 1198 ft 59 kts 188°
2026-04-26 03:56 -37.02833 174.96281 1049 ft 86 kts 148°
2026-04-26 03:56 -37.03300 174.96746 1025 ft 83 kts 152°
2026-04-26 03:57 -37.03747 174.97151 1028 ft 79 kts 156°
2026-04-26 03:57 -37.04172 174.97613 1081 ft 81 kts 128°
2026-04-26 03:57 -37.04179 174.98317 1142 ft 88 kts 64°
2026-04-26 03:57 -37.03819 174.98983 1092 ft 97 kts 57°
2026-04-26 03:58 -37.03392 174.99625 1095 ft 96 kts 48°
2026-04-26 03:58 -37.02971 175.00085 979 ft 75 kts 17°
2026-04-26 03:58 -37.02492 174.99995 813 ft 68 kts 305°
2026-04-26 03:58 -37.02097 174.99665 769 ft 65 kts 307°
2026-04-26 03:59 -37.01986 174.99211 646 ft 51 kts 264°
2026-04-26 03:59 -37.02058 174.98805 483 ft 52 kts 239°
2026-04-26 03:59 -37.02215 174.98554 391 ft 58 kts 225°
2026-04-26 03:59 -37.02493 174.98208 260 ft 52 kts 232°
2026-04-26 04:00 -37.02775 174.97845 113 ft 28 kts 234°
2026-04-26 04:00 -37.02884 174.97702 113 ft 47 kts 219°
2026-04-26 04:00 -37.03168 174.97329 235 ft 65 kts 231°
2026-04-26 04:00 -37.03486 174.96913 470 ft 63 kts 226°
2026-04-26 04:01 -37.03800 174.96487 643 ft 68 kts 212°
2026-04-26 04:01 -37.04199 174.96689 892 ft 74 kts 150°
2026-04-26 04:01 -37.04601 174.97137 1056 ft 82 kts 136°
2026-04-26 04:01 -37.04562 174.97885 1107 ft 97 kts 57°
2026-04-26 04:02 -37.04166 174.98540 1130 ft 95 kts 53°
2026-04-26 04:02 -37.03771 174.99237 1067 ft 99 kts 57°
2026-04-26 04:02 -37.03381 174.99933 1045 ft 84 kts 56°
2026-04-26 04:02 -37.02935 175.00265 833 ft 69 kts 358°
2026-04-26 04:03 -37.02466 175.00080 698 ft 75 kts 324°
2026-04-26 04:03 -37.02030 174.99794 713 ft 65 kts 315°
2026-04-26 04:03 -37.01747 174.99362 638 ft 60 kts 271°
2026-04-26 04:03 -37.01935 174.98930 484 ft 60 kts 222°
2026-04-26 04:04 -37.02201 174.98590 359 ft 52 kts 229°
2026-04-26 04:04 -37.02468 174.98237 242 ft 60 kts 230°
2026-04-26 04:04 -37.02753 174.97872 116 ft 51 kts 229°
2026-04-26 04:04 -37.02953 174.97615 117 ft 53 kts 227°
2026-04-26 04:05 -37.03279 174.97215 229 ft 71 kts 228°
2026-04-26 04:05 -37.03616 174.96798 504 ft 65 kts 227°
2026-04-26 04:05 -37.04033 174.96590 684 ft 77 kts 169°
2026-04-26 04:05 -37.04443 174.97048 946 ft 75 kts 144°
2026-04-26 04:06 -37.04708 174.97618 1092 ft 85 kts 99°
2026-04-26 04:06 -37.04442 174.98327 1100 ft 93 kts 56°
2026-04-26 04:06 -37.04021 174.98962 1075 ft 99 kts 48°
2026-04-26 04:06 -37.03579 174.99581 1103 ft 94 kts 48°
2026-04-26 04:07 -37.03147 175.00186 1098 ft 83 kts 49°
2026-04-26 04:07 -37.02667 175.00477 907 ft 81 kts 354°
2026-04-26 04:07 -37.02175 175.00309 829 ft 69 kts 322°
2026-04-26 04:07 -37.01753 175.00007 716 ft 69 kts 318°
2026-04-26 04:08 -37.01547 174.99560 680 ft 57 kts 265°
2026-04-26 04:08 -37.01735 174.99137 599 ft 61 kts 228°
2026-04-26 04:08 -37.02036 174.98782 462 ft 51 kts 226°
2026-04-26 04:08 -37.02273 174.98484 317 ft 49 kts 232°
2026-04-26 04:09 -37.02519 174.98178 214 ft 50 kts 230°
2026-04-26 04:09 -37.02757 174.97872 119 ft 41 kts 233°
2026-04-26 04:09 -37.02939 174.97642 116 ft 54 kts 224°
2026-04-26 04:09 -37.03184 174.97349 239 ft 66 kts 230°